createdAt,value
2018-02-21T00:01:26.039Z,98947.61
2018-02-21T00:03:53.664Z,98943.78
2018-02-21T00:06:21.218Z,98945.75
2018-02-21T00:08:48.774Z,98946.36
2018-02-21T00:11:16.341Z,98945.52
2018-02-21T00:13:44.134Z,98945.48
2018-02-21T00:16:11.713Z,98938.73
2018-02-21T00:18:39.273Z,98940.70
2018-02-21T00:21:06.924Z,98947.09
2018-02-21T00:23:34.482Z,98945.75
2018-02-21T00:26:02.043Z,98946.84
2018-02-21T00:28:29.618Z,98949.89
2018-02-21T00:30:57.186Z,98948.64
2018-02-21T00:33:24.975Z,98949.51
2018-02-21T00:35:52.538Z,98948.96
2018-02-21T00:38:20.150Z,98944.48
2018-02-21T00:40:47.707Z,98934.68
2018-02-21T00:43:15.418Z,98930.24
2018-02-21T00:45:43.062Z,98932.05
2018-02-21T00:48:10.627Z,98926.37
2018-02-21T00:50:38.370Z,98930.72
2018-02-21T00:53:06.087Z,98922.94
2018-02-21T00:55:33.727Z,98926.34
2018-02-21T00:58:01.292Z,98925.58
2018-02-21T01:00:28.859Z,98922.14
2018-02-21T01:02:56.481Z,98925.28
2018-02-21T01:05:24.069Z,98919.75
2018-02-21T01:07:51.826Z,98926.89
2018-02-21T01:10:19.524Z,98924.77
2018-02-21T01:12:47.150Z,98920.08
2018-02-21T01:15:14.714Z,98918.75
2018-02-21T01:17:42.330Z,98927.24
2018-02-21T01:20:10.116Z,98918.44
2018-02-21T01:22:37.938Z,98914.92
2018-02-21T01:25:05.489Z,98909.46
2018-02-21T01:27:33.281Z,98908.23
2018-02-21T01:30:00.846Z,98896.28
2018-02-21T01:32:28.606Z,98908.37
2018-02-21T01:34:56.457Z,98910.04
2018-02-21T01:37:24.022Z,98906.62
2018-02-21T01:39:51.563Z,98904.13
2018-02-21T01:42:19.135Z,98901.58
2018-02-21T01:44:46.695Z,98907.17
2018-02-21T01:47:14.262Z,98902.86
2018-02-21T01:49:41.816Z,98902.66
2018-02-21T01:52:09.382Z,98906.34
2018-02-21T01:54:36.933Z,98909.23
2018-02-21T01:57:04.559Z,98901.39
2018-02-21T01:59:32.109Z,98905.22
2018-02-21T02:01:59.671Z,98899.55
2018-02-21T02:04:27.438Z,98903.25
2018-02-21T02:06:55.160Z,98905.82
2018-02-21T02:09:22.895Z,98907.72
2018-02-21T02:11:50.692Z,98899.48
2018-02-21T02:14:18.301Z,98905.02
2018-02-21T02:16:46.009Z,98895.24
2018-02-21T02:19:13.606Z,98901.19
2018-02-21T02:21:41.366Z,98900.03
2018-02-21T02:24:08.921Z,98897.65
2018-02-21T02:26:36.498Z,98893.14
2018-02-21T02:29:04.057Z,98887.48
2018-02-21T02:31:31.936Z,98888.83
2018-02-21T02:33:59.496Z,98883.48
2018-02-21T02:36:27.056Z,98878.69
2018-02-21T02:39:06.440Z,98876.53
